sensor_id;sensor_type;location;lat;lon;timestamp;pressure;altitude;pressure_sealevel;temperature;humidity
68456;BME280;55437;55.046;38.838;2022-08-19T00:01:40;100502.53;;;20.42;48.64
68456;BME280;55437;55.046;38.838;2022-08-19T00:04:08;100491.09;;;20.45;48.84
68456;BME280;55437;55.046;38.838;2022-08-19T00:06:36;100496.47;;;20.42;48.92
68456;BME280;55437;55.046;38.838;2022-08-19T00:09:06;100503.69;;;20.38;49.05
68456;BME280;55437;55.046;38.838;2022-08-19T00:11:33;100508.16;;;20.36;49.04
68456;BME280;55437;55.046;38.838;2022-08-19T00:14:04;100517.75;;;20.36;49.09
68456;BME280;55437;55.046;38.838;2022-08-19T00:16:30;100514.28;;;20.35;49.22
68456;BME280;55437;55.046;38.838;2022-08-19T00:18:56;100519.56;;;20.34;49.26
68456;BME280;55437;55.046;38.838;2022-08-19T00:21:24;100518.63;;;20.35;49.16
68456;BME280;55437;55.046;38.838;2022-08-19T00:23:55;100524.63;;;20.37;49.20
68456;BME280;55437;55.046;38.838;2022-08-19T00:26:29;100523.94;;;20.33;49.33
68456;BME280;55437;55.046;38.838;2022-08-19T00:28:55;100530.00;;;20.34;49.39
68456;BME280;55437;55.046;38.838;2022-08-19T00:31:21;100531.84;;;20.32;49.45
68456;BME280;55437;55.046;38.838;2022-08-19T00:33:47;100526.66;;;20.32;49.64
68456;BME280;55437;55.046;38.838;2022-08-19T00:36:16;100530.19;;;20.31;49.99
68456;BME280;55437;55.046;38.838;2022-08-19T00:38:43;100533.94;;;20.27;50.09
68456;BME280;55437;55.046;38.838;2022-08-19T00:41:14;100533.28;;;20.23;50.27
68456;BME280;55437;55.046;38.838;2022-08-19T00:43:41;100548.25;;;20.20;50.50
68456;BME280;55437;55.046;38.838;2022-08-19T00:46:10;100537.19;;;20.16;50.71
68456;BME280;55437;55.046;38.838;2022-08-19T00:48:36;100546.03;;;20.13;51.00
68456;BME280;55437;55.046;38.838;2022-08-19T00:51:05;100540.25;;;20.08;51.08
68456;BME280;55437;55.046;38.838;2022-08-19T00:53:34;100538.47;;;20.09;51.40
68456;BME280;55437;55.046;38.838;2022-08-19T00:56:03;100537.63;;;20.08;51.58
68456;BME280;55437;55.046;38.838;2022-08-19T00:58:34;100536.03;;;20.06;51.80
68456;BME280;55437;55.046;38.838;2022-08-19T01:01:03;100544.25;;;20.00;52.17
68456;BME280;55437;55.046;38.838;2022-08-19T01:03:29;100543.50;;;19.98;52.39
68456;BME280;55437;55.046;38.838;2022-08-19T01:05:58;100541.34;;;19.90;52.87
68456;BME280;55437;55.046;38.838;2022-08-19T01:08:23;100541.53;;;19.87;52.93
68456;BME280;55437;55.046;38.838;2022-08-19T01:10:53;100533.88;;;19.84;53.49
68456;BME280;55437;55.046;38.838;2022-08-19T01:13:23;100541.03;;;19.81;53.88
68456;BME280;55437;55.046;38.838;2022-08-19T01:15:55;100534.59;;;19.72;54.25
68456;BME280;55437;55.046;38.838;2022-08-19T01:18:23;100546.53;;;19.76;54.31
68456;BME280;55437;55.046;38.838;2022-08-19T01:20:52;100548.47;;;19.72;54.58
68456;BME280;55437;55.046;38.838;2022-08-19T01:23:19;100540.00;;;19.69;54.63
68456;BME280;55437;55.046;38.838;2022-08-19T01:25:50;100544.47;;;19.67;54.79
68456;BME280;55437;55.046;38.838;2022-08-19T01:28:24;100547.09;;;19.67;55.04
68456;BME280;55437;55.046;38.838;2022-08-19T01:30:54;100551.53;;;19.65;55.14
68456;BME280;55437;55.046;38.838;2022-08-19T01:33:21;100554.91;;;19.67;55.25
68456;BME280;55437;55.046;38.838;2022-08-19T01:35:47;100542.88;;;19.64;55.57
68456;BME280;55437;55.046;38.838;2022-08-19T01:38:24;100552.38;;;19.65;55.89
68456;BME280;55437;55.046;38.838;2022-08-19T01:40:51;100560.38;;;19.62;56.13
68456;BME280;55437;55.046;38.838;2022-08-19T01:43:17;100556.06;;;19.61;56.41
68456;BME280;55437;55.046;38.838;2022-08-19T01:45:45;100555.31;;;19.59;56.49
68456;BME280;55437;55.046;38.838;2022-08-19T01:48:11;100545.81;;;19.58;56.70
68456;BME280;55437;55.046;38.838;2022-08-19T01:50:37;100553.72;;;19.57;56.84
68456;BME280;55437;55.046;38.838;2022-08-19T01:53:09;100544.97;;;19.58;56.78
68456;BME280;55437;55.046;38.838;2022-08-19T01:55:39;100548.50;;;19.57;56.93
68456;BME280;55437;55.046;38.838;2022-08-19T01:58:13;100554.56;;;19.57;57.09
68456;BME280;55437;55.046;38.838;2022-08-19T02:00:41;100546.03;;;19.55;57.28
68456;BME280;55437;55.046;38.838;2022-08-19T02:03:07;100548.50;;;19.57;57.28
68456;BME280;55437;55.046;38.838;2022-08-19T02:05:34;100548.50;;;19.57;57.36
68456;BME280;55437;55.046;38.838;2022-08-19T02:08:00;100553.84;;;19.55;57.45
68456;BME280;55437;55.046;38.838;2022-08-19T02:10:28;100550.56;;;19.52;57.51
68456;BME280;55437;55.046;38.838;2022-08-19T02:12:54;100555.03;;;19.50;57.41
68456;BME280;55437;55.046;38.838;2022-08-19T02:15:20;100555.03;;;19.50;57.43
68456;BME280;55437;55.046;38.838;2022-08-19T02:17:47;100546.41;;;19.48;57.33
68456;BME280;55437;55.046;38.838;2022-08-19T02:20:16;100550.78;;;19.47;57.38
68456;BME280;55437;55.046;38.838;2022-08-19T02:22:45;100550.97;;;19.44;57.38
68456;BME280;55437;55.046;38.838;2022-08-19T02:25:14;100562.22;;;19.44;57.49
68456;BME280;55437;55.046;38.838;2022-08-19T02:27:41;100559.59;;;19.44;57.50
68456;BME280;55437;55.046;38.838;2022-08-19T02:30:11;100562.84;;;19.50;57.20
68456;BME280;55437;55.046;38.838;2022-08-19T02:32:37;100555.16;;;19.47;57.28
68456;BME280;55437;55.046;38.838;2022-08-19T02:35:05;100555.94;;;19.49;57.20
68456;BME280;55437;55.046;38.838;2022-08-19T02:37:31;100557.69;;;19.48;57.43
68456;BME280;55437;55.046;38.838;2022-08-19T02:40:15;100552.47;;;19.48;57.42
68456;BME280;55437;55.046;38.838;2022-08-19T02:42:44;100562.00;;;19.49;57.15
68456;BME280;55437;55.046;38.838;2022-08-19T02:45:14;100549.72;;;19.51;57.20
68456;BME280;55437;55.046;38.838;2022-08-19T02:47:40;100554.75;;;19.54;57.17
68456;BME280;55437;55.046;38.838;2022-08-19T02:50:07;100558.38;;;19.52;57.21
68456;BME280;55437;55.046;38.838;2022-08-19T02:52:33;100568.63;;;19.55;57.31
68456;BME280;55437;55.046;38.838;2022-08-19T02:54:59;100555.59;;;19.55;57.15
68456;BME280;55437;55.046;38.838;2022-08-19T02:57:25;100564.81;;;19.60;57.04
68456;BME280;55437;55.046;38.838;2022-08-19T02:59:54;100582.13;;;19.61;56.99
68456;BME280;55437;55.046;38.838;2022-08-19T03:02:19;100565.75;;;19.59;57.10
68456;BME280;55437;55.046;38.838;2022-08-19T03:04:47;100570.88;;;19.61;57.04
68456;BME280;55437;55.046;38.838;2022-08-19T03:07:16;100575.91;;;19.64;56.97
68456;BME280;55437;55.046;38.838;2022-08-19T03:10:03;100569.09;;;19.61;56.83
68456;BME280;55437;55.046;38.838;2022-08-19T03:12:29;100580.38;;;19.62;57.19
68456;BME280;55437;55.046;38.838;2022-08-19T03:14:55;100572.09;;;19.69;56.88
68456;BME280;55437;55.046;38.838;2022-08-19T03:17:24;100577.91;;;19.74;56.77
68456;BME280;55437;55.046;38.838;2022-08-19T03:19:50;100574.38;;;19.75;56.86
68456;BME280;55437;55.046;38.838;2022-08-19T03:22:16;100570.00;;;19.76;56.84
68456;BME280;55437;55.046;38.838;2022-08-19T03:24:42;100573.91;;;19.83;56.66
68456;BME280;55437;55.046;38.838;2022-08-19T03:27:09;100575.41;;;19.87;56.61
68456;BME280;55437;55.046;38.838;2022-08-19T03:29:37;100581.22;;;19.92;56.55
68456;BME280;55437;55.046;38.838;2022-08-19T03:32:05;100574.03;;;19.96;56.37
68456;BME280;55437;55.046;38.838;2022-08-19T03:34:34;100567.88;;;19.97;56.58
68456;BME280;55437;55.046;38.838;2022-08-19T03:37:11;100569.09;;;20.05;56.34
68456;BME280;55437;55.046;38.838;2022-08-19T03:39:40;100561.09;;;20.08;56.36
68456;BME280;55437;55.046;38.838;2022-08-19T03:42:08;100571.63;;;20.07;56.60
68456;BME280;55437;55.046;38.838;2022-08-19T03:44:35;100564.72;;;20.06;56.67
68456;BME280;55437;55.046;38.838;2022-08-19T03:47:04;100560.25;;;20.08;56.66
68456;BME280;55437;55.046;38.838;2022-08-19T03:49:32;100566.88;;;20.13;56.80
68456;BME280;55437;55.046;38.838;2022-08-19T03:51:59;100572.19;;;20.12;57.01
68456;BME280;55437;55.046;38.838;2022-08-19T03:54:27;100569.50;;;20.13;56.93
68456;BME280;55437;55.046;38.838;2022-08-19T03:56:55;100577.94;;;20.17;56.81
68456;BME280;55437;55.046;38.838;2022-08-19T03:59:30;100576.94;;;20.20;56.93
68456;BME280;55437;55.046;38.838;2022-08-19T04:01:57;100576.59;;;20.26;56.74
68456;BME280;55437;55.046;38.838;2022-08-19T04:04:24;100577.22;;;20.29;56.58
68456;BME280;55437;55.046;38.838;2022-08-19T04:06:51;100583.00;;;20.34;56.38
68456;BME280;55437;55.046;38.838;2022-08-19T04:09:17;100590.59;;;20.39;56.26
68456;BME280;55437;55.046;38.838;2022-08-19T04:11:47;100587.78;;;20.42;56.07
68456;BME280;55437;55.046;38.838;2022-08-19T04:18:19;100610.69;;;20.65;55.52
68456;BME280;55437;55.046;38.838;2022-08-19T04:20:46;100596.19;;;20.75;55.25
68456;BME280;55437;55.046;38.838;2022-08-19T04:23:14;100610.50;;;20.82;55.30
68456;BME280;55437;55.046;38.838;2022-08-19T04:25:42;100600.06;;;20.82;55.12
68456;BME280;55437;55.046;38.838;2022-08-19T04:28:11;100605.63;;;20.91;55.17
68456;BME280;55437;55.046;38.838;2022-08-19T04:30:52;100602.56;;;20.98;54.96
68456;BME280;55437;55.046;38.838;2022-08-19T04:33:43;100599.97;;;20.98;54.98
68456;BME280;55437;55.046;38.838;2022-08-19T04:36:21;100597.03;;;21.03;54.87
68456;BME280;55437;55.046;38.838;2022-08-19T04:38:50;100596.47;;;21.12;54.85
68456;BME280;55437;55.046;38.838;2022-08-19T04:41:18;100591.44;;;21.23;54.67
68456;BME280;55437;55.046;38.838;2022-08-19T04:44:03;100622.19;;;21.32;54.36
68456;BME280;55437;55.046;38.838;2022-08-19T04:46:32;100595.78;;;21.37;54.36
68456;BME280;55437;55.046;38.838;2022-08-19T04:48:59;100591.72;;;21.45;53.99
68456;BME280;55437;55.046;38.838;2022-08-19T04:51:25;100590.19;;;21.55;54.19
68456;BME280;55437;55.046;38.838;2022-08-19T04:53:51;100588.69;;;21.51;53.92
68456;BME280;55437;55.046;38.838;2022-08-19T04:56:19;100596.06;;;21.59;53.80
68456;BME280;55437;55.046;38.838;2022-08-19T04:58:46;100595.53;;;21.67;53.64
68456;BME280;55437;55.046;38.838;2022-08-19T05:01:14;100599.03;;;21.80;53.43
68456;BME280;55437;55.046;38.838;2022-08-19T05:03:43;100606.16;;;21.90;53.05
68456;BME280;55437;55.046;38.838;2022-08-19T05:06:13;100601.81;;;22.04;52.90
68456;BME280;55437;55.046;38.838;2022-08-19T05:08:41;100600.25;;;22.26;52.38
68456;BME280;55437;55.046;38.838;2022-08-19T05:11:11;100590.88;;;22.60;51.85
68456;BME280;55437;55.046;38.838;2022-08-19T05:13:38;100605.84;;;22.71;51.38
68456;BME280;55437;55.046;38.838;2022-08-19T05:16:05;100598.94;;;22.83;51.14
68456;BME280;55437;55.046;38.838;2022-08-19T05:18:31;100592.50;;;22.99;50.82
68456;BME280;55437;55.046;38.838;2022-08-19T05:21:17;100608.22;;;22.99;50.57
68456;BME280;55437;55.046;38.838;2022-08-19T05:24:03;100603.03;;;22.87;50.49
68456;BME280;55437;55.046;38.838;2022-08-19T05:26:34;100597.41;;;22.80;50.75
68456;BME280;55437;55.046;38.838;2022-08-19T05:29:02;100589.31;;;22.83;50.67
68456;BME280;55437;55.046;38.838;2022-08-19T05:31:29;100588.75;;;23.04;50.60
68456;BME280;55437;55.046;38.838;2022-08-19T05:33:55;100597.81;;;23.11;50.16
68456;BME280;55437;55.046;38.838;2022-08-19T05:36:21;100592.69;;;23.33;49.91
68456;BME280;55437;55.046;38.838;2022-08-19T05:38:49;100594.97;;;23.50;49.29
68456;BME280;55437;55.046;38.838;2022-08-19T05:41:17;100598.16;;;23.78;48.63
68456;BME280;55437;55.046;38.838;2022-08-19T05:43:46;100596.75;;;23.85;48.46
68456;BME280;55437;55.046;38.838;2022-08-19T05:46:19;100602.94;;;23.84;48.47
68456;BME280;55437;55.046;38.838;2022-08-19T05:48:45;100600.00;;;23.99;48.19
68456;BME280;55437;55.046;38.838;2022-08-19T05:51:11;100599.88;;;24.01;48.28
68456;BME280;55437;55.046;38.838;2022-08-19T05:53:37;100602.94;;;23.84;48.33
68456;BME280;55437;55.046;38.838;2022-08-19T05:56:08;100612.13;;;23.78;48.57
68456;BME280;55437;55.046;38.838;2022-08-19T05:58:36;100615.19;;;23.72;48.61
68456;BME280;55437;55.046;38.838;2022-08-19T06:01:03;100608.47;;;23.68;48.70
68456;BME280;55437;55.046;38.838;2022-08-19T06:03:35;100615.88;;;23.63;48.86
68456;BME280;55437;55.046;38.838;2022-08-19T06:10:10;100619.03;;;23.55;49.10
68456;BME280;55437;55.046;38.838;2022-08-19T06:12:37;100620.63;;;23.69;48.82
68456;BME280;55437;55.046;38.838;2022-08-19T06:15:08;100621.22;;;23.61;48.66
68456;BME280;55437;55.046;38.838;2022-08-19T06:17:36;100621.72;;;23.66;48.72
68456;BME280;55437;55.046;38.838;2022-08-19T06:20:08;100625.47;;;23.86;48.18
68456;BME280;55437;55.046;38.838;2022-08-19T06:22:44;100612.41;;;23.97;47.93
68456;BME280;55437;55.046;38.838;2022-08-19T06:25:11;100620.94;;;24.23;47.16
68456;BME280;55437;55.046;38.838;2022-08-19T06:27:37;100628.34;;;24.40;46.75
68456;BME280;55437;55.046;38.838;2022-08-19T06:30:04;100635.06;;;24.56;46.32
68456;BME280;55437;55.046;38.838;2022-08-19T06:32:30;100631.69;;;24.54;46.20
68456;BME280;55437;55.046;38.838;2022-08-19T06:34:57;100657.72;;;24.57;46.06
68456;BME280;55437;55.046;38.838;2022-08-19T06:37:23;100641.25;;;24.44;46.34
68456;BME280;55437;55.046;38.838;2022-08-19T06:39:50;100647.94;;;24.48;46.51
68456;BME280;55437;55.046;38.838;2022-08-19T06:42:16;100641.75;;;24.60;46.23
68456;BME280;55437;55.046;38.838;2022-08-19T06:44:46;100649.25;;;24.53;46.12
68456;BME280;55437;55.046;38.838;2022-08-19T06:47:20;100639.94;;;24.49;46.14
68456;BME280;55437;55.046;38.838;2022-08-19T06:49:46;100633.38;;;24.55;46.30
68456;BME280;55437;55.046;38.838;2022-08-19T06:52:13;100631.00;;;24.74;46.09
68456;BME280;55437;55.046;38.838;2022-08-19T06:54:40;100621.47;;;24.95;45.61
68456;BME280;55437;55.046;38.838;2022-08-19T06:57:07;100641.75;;;25.04;45.22
68456;BME280;55437;55.046;38.838;2022-08-19T06:59:39;100646.88;;;24.84;45.41
68456;BME280;55437;55.046;38.838;2022-08-19T07:02:05;100627.03;;;25.02;45.05
68456;BME280;55437;55.046;38.838;2022-08-19T07:04:33;100619.78;;;25.37;44.35
68456;BME280;55437;55.046;38.838;2022-08-19T07:07:04;100620.06;;;25.66;44.02
68456;BME280;55437;55.046;38.838;2022-08-19T07:09:33;100624.78;;;26.04;43.39
68456;BME280;55437;55.046;38.838;2022-08-19T07:11:59;100628.34;;;26.24;42.58
68456;BME280;55437;55.046;38.838;2022-08-19T07:14:27;100647.66;;;26.85;41.55
68456;BME280;55437;55.046;38.838;2022-08-19T07:16:54;100637.81;;;26.87;40.88
68456;BME280;55437;55.046;38.838;2022-08-19T07:19:22;100621.50;;;26.33;41.78
68456;BME280;55437;55.046;38.838;2022-08-19T07:21:50;100635.25;;;25.95;42.74
68456;BME280;55437;55.046;38.838;2022-08-19T07:24:19;100625.47;;;25.86;42.56
68456;BME280;55437;55.046;38.838;2022-08-19T07:26:45;100621.91;;;26.07;42.05
68456;BME280;55437;55.046;38.838;2022-08-19T07:29:12;100624.53;;;26.28;41.44
68456;BME280;55437;55.046;38.838;2022-08-19T07:31:45;100613.22;;;26.37;41.42
68456;BME280;55437;55.046;38.838;2022-08-19T07:34:11;100631.78;;;26.15;41.01
68456;BME280;55437;55.046;38.838;2022-08-19T07:36:41;100645.19;;;26.12;41.45
68456;BME280;55437;55.046;38.838;2022-08-19T07:39:18;100639.22;;;26.10;41.36
68456;BME280;55437;55.046;38.838;2022-08-19T07:41:45;100618.28;;;26.08;41.17
68456;BME280;55437;55.046;38.838;2022-08-19T07:44:12;100624.91;;;25.82;41.43
68456;BME280;55437;55.046;38.838;2022-08-19T07:46:44;100624.41;;;25.56;41.74
68456;BME280;55437;55.046;38.838;2022-08-19T07:49:13;100647.75;;;25.38;42.39
68456;BME280;55437;55.046;38.838;2022-08-19T07:51:51;100638.31;;;25.36;42.26
68456;BME280;55437;55.046;38.838;2022-08-19T07:54:17;100667.88;;;25.17;42.37
68456;BME280;55437;55.046;38.838;2022-08-19T07:56:43;100650.00;;;25.11;42.39
68456;BME280;55437;55.046;38.838;2022-08-19T07:59:09;100639.84;;;25.06;42.11
68456;BME280;55437;55.046;38.838;2022-08-19T08:01:35;100637.56;;;25.02;42.56
68456;BME280;55437;55.046;38.838;2022-08-19T08:04:01;100631.22;;;25.16;42.42
68456;BME280;55437;55.046;38.838;2022-08-19T08:06:46;100639.34;;;25.56;41.66
68456;BME280;55437;55.046;38.838;2022-08-19T08:09:34;100639.53;;;25.75;40.88
68456;BME280;55437;55.046;38.838;2022-08-19T08:12:04;100636.47;;;25.91;40.61
68456;BME280;55437;55.046;38.838;2022-08-19T08:14:36;100644.28;;;26.02;40.15
68456;BME280;55437;55.046;38.838;2022-08-19T08:17:03;100665.88;;;25.96;40.01
68456;BME280;55437;55.046;38.838;2022-08-19T08:19:30;100647.22;;;25.88;39.92
68456;BME280;55437;55.046;38.838;2022-08-19T08:24:24;100646.16;;;25.90;39.58
68456;BME280;55437;55.046;38.838;2022-08-19T08:30:31;100626.75;;;26.33;38.54
68456;BME280;55437;55.046;38.838;2022-08-19T08:33:02;100634.28;;;26.37;38.74
68456;BME280;55437;55.046;38.838;2022-08-19T08:35:28;100647.56;;;26.15;37.90
68456;BME280;55437;55.046;38.838;2022-08-19T08:37:55;100634.84;;;25.99;37.71
68456;BME280;55437;55.046;38.838;2022-08-19T08:46:09;100624.03;;;25.93;37.60
68456;BME280;55437;55.046;38.838;2022-08-19T08:48:43;100629.06;;;25.64;37.59
68456;BME280;55437;55.046;38.838;2022-08-19T08:51:24;100626.91;;;25.58;37.62
68456;BME280;55437;55.046;38.838;2022-08-19T08:53:52;100630.75;;;25.54;37.58
68456;BME280;55437;55.046;38.838;2022-08-19T08:56:19;100626.78;;;25.59;37.87
68456;BME280;55437;55.046;38.838;2022-08-19T09:01:11;100672.50;;;25.47;37.70
68456;BME280;55437;55.046;38.838;2022-08-19T09:03:42;100624.22;;;25.37;37.98
68456;BME280;55437;55.046;38.838;2022-08-19T09:06:25;100623.66;;;25.33;37.88
68456;BME280;55437;55.046;38.838;2022-08-19T09:09:05;100621.69;;;25.46;37.94
68456;BME280;55437;55.046;38.838;2022-08-19T09:14:32;100633.31;;;25.33;37.98
68456;BME280;55437;55.046;38.838;2022-08-19T09:16:59;100636.19;;;25.30;38.28
68456;BME280;55437;55.046;38.838;2022-08-19T09:19:25;100626.84;;;25.37;38.50
68456;BME280;55437;55.046;38.838;2022-08-19T09:21:50;100646.56;;;25.42;37.98
68456;BME280;55437;55.046;38.838;2022-08-19T09:24:16;100648.47;;;25.40;38.07
68456;BME280;55437;55.046;38.838;2022-08-19T09:26:43;100646.75;;;25.51;37.87
68456;BME280;55437;55.046;38.838;2022-08-19T09:29:14;100647.59;;;25.62;38.13
68456;BME280;55437;55.046;38.838;2022-08-19T09:31:40;100648.25;;;25.75;37.95
68456;BME280;55437;55.046;38.838;2022-08-19T09:34:08;100645.00;;;25.83;37.66
68456;BME280;55437;55.046;38.838;2022-08-19T09:36:34;100641.72;;;25.91;37.17
68456;BME280;55437;55.046;38.838;2022-08-19T09:39:12;100646.81;;;26.03;37.39
68456;BME280;55437;55.046;38.838;2022-08-19T09:41:38;100662.41;;;26.16;37.40
68456;BME280;55437;55.046;38.838;2022-08-19T09:44:03;100656.81;;;26.09;36.78
68456;BME280;55437;55.046;38.838;2022-08-19T09:46:29;100655.84;;;26.10;36.84
68456;BME280;55437;55.046;38.838;2022-08-19T09:48:58;100661.50;;;26.06;36.99
68456;BME280;55437;55.046;38.838;2022-08-19T09:51:26;100659.97;;;26.03;37.12
68456;BME280;55437;55.046;38.838;2022-08-19T09:53:53;100664.56;;;25.90;37.16
68456;BME280;55437;55.046;38.838;2022-08-19T09:56:21;100656.56;;;25.92;37.07
68456;BME280;55437;55.046;38.838;2022-08-19T09:58:49;100656.44;;;26.14;37.14
68456;BME280;55437;55.046;38.838;2022-08-19T10:01:23;100665.06;;;26.37;36.79
68456;BME280;55437;55.046;38.838;2022-08-19T10:03:52;100676.53;;;26.57;36.46
68456;BME280;55437;55.046;38.838;2022-08-19T10:06:19;100664.97;;;26.48;36.19
68456;BME280;55437;55.046;38.838;2022-08-19T10:08:48;100674.41;;;26.50;36.07
68456;BME280;55437;55.046;38.838;2022-08-19T10:11:14;100668.28;;;26.40;36.49
68456;BME280;55437;55.046;38.838;2022-08-19T10:13:42;100665.81;;;26.48;36.58
68456;BME280;55437;55.046;38.838;2022-08-19T10:16:19;100666.88;;;26.67;36.01
68456;BME280;55437;55.046;38.838;2022-08-19T10:18:48;100691.81;;;26.93;35.70
68456;BME280;55437;55.046;38.838;2022-08-19T10:21:21;100682.16;;;27.03;35.88
68456;BME280;55437;55.046;38.838;2022-08-19T10:23:50;100677.50;;;27.16;35.42
68456;BME280;55437;55.046;38.838;2022-08-19T10:26:23;100704.53;;;27.18;35.40
68456;BME280;55437;55.046;38.838;2022-08-19T10:28:50;100671.22;;;27.08;35.40
68456;BME280;55437;55.046;38.838;2022-08-19T10:31:19;100702.16;;;26.85;36.00
68456;BME280;55437;55.046;38.838;2022-08-19T10:33:49;100672.09;;;26.57;36.33
68456;BME280;55437;55.046;38.838;2022-08-19T10:36:23;100685.00;;;26.60;36.52
68456;BME280;55437;55.046;38.838;2022-08-19T10:38:51;100691.28;;;26.69;36.07
68456;BME280;55437;55.046;38.838;2022-08-19T10:41:20;100692.47;;;26.55;35.90
68456;BME280;55437;55.046;38.838;2022-08-19T10:43:47;100726.34;;;26.39;36.28
68456;BME280;55437;55.046;38.838;2022-08-19T10:46:16;100695.09;;;26.34;36.70
68456;BME280;55437;55.046;38.838;2022-08-19T10:48:43;100683.50;;;26.37;36.50
68456;BME280;55437;55.046;38.838;2022-08-19T10:51:10;100686.78;;;26.29;36.33
68456;BME280;55437;55.046;38.838;2022-08-19T10:53:56;100700.69;;;26.20;36.57
68456;BME280;55437;55.046;38.838;2022-08-19T10:57:37;100699.31;;;26.05;36.96
68456;BME280;55437;55.046;38.838;2022-08-19T11:00:03;100705.94;;;26.20;36.85
68456;BME280;55437;55.046;38.838;2022-08-19T11:02:29;100696.81;;;26.24;37.03
68456;BME280;55437;55.046;38.838;2022-08-19T11:04:56;100692.81;;;26.41;36.94
68456;BME280;55437;55.046;38.838;2022-08-19T11:07:21;100692.69;;;26.42;36.95
68456;BME280;55437;55.046;38.838;2022-08-19T11:09:50;100694.72;;;26.18;37.19
68456;BME280;55437;55.046;38.838;2022-08-19T11:15:59;100697.13;;;26.10;37.90
68456;BME280;55437;55.046;38.838;2022-08-19T11:18:25;100695.19;;;25.91;37.70
68456;BME280;55437;55.046;38.838;2022-08-19T11:20:51;100696.78;;;25.82;37.98
68456;BME280;55437;55.046;38.838;2022-08-19T11:23:18;100704.44;;;25.74;38.34
68456;BME280;55437;55.046;38.838;2022-08-19T11:25:44;100699.72;;;25.57;38.47
68456;BME280;55437;55.046;38.838;2022-08-19T11:28:11;100714.56;;;25.47;38.87
68456;BME280;55437;55.046;38.838;2022-08-19T11:30:38;100696.84;;;25.49;39.03
68456;BME280;55437;55.046;38.838;2022-08-19T11:33:04;100700.66;;;25.56;38.81
68456;BME280;55437;55.046;38.838;2022-08-19T11:35:30;100695.53;;;25.66;38.90
68456;BME280;55437;55.046;38.838;2022-08-19T11:37:56;100703.00;;;25.81;38.89
68456;BME280;55437;55.046;38.838;2022-08-19T11:40:26;100702.13;;;25.92;38.38
68456;BME280;55437;55.046;38.838;2022-08-19T11:42:52;100710.38;;;25.88;38.09
68456;BME280;55437;55.046;38.838;2022-08-19T11:45:25;100721.75;;;25.88;38.30
68456;BME280;55437;55.046;38.838;2022-08-19T11:47:52;100709.34;;;25.79;38.66
68456;BME280;55437;55.046;38.838;2022-08-19T11:52:45;100719.28;;;25.75;38.75
68456;BME280;55437;55.046;38.838;2022-08-19T11:55:12;100743.59;;;25.57;38.94
68456;BME280;55437;55.046;38.838;2022-08-19T11:57:41;100727.03;;;25.34;39.27
68456;BME280;55437;55.046;38.838;2022-08-19T12:00:09;100720.09;;;25.33;39.55
68456;BME280;55437;55.046;38.838;2022-08-19T12:02:37;100720.56;;;25.27;39.60
68456;BME280;55437;55.046;38.838;2022-08-19T12:05:03;100724.41;;;25.11;39.97
68456;BME280;55437;55.046;38.838;2022-08-19T12:07:29;100732.31;;;25.11;40.06
68456;BME280;55437;55.046;38.838;2022-08-19T12:09:59;100723.09;;;25.06;39.94
68456;BME280;55437;55.046;38.838;2022-08-19T12:12:25;100726.66;;;25.05;40.04
68456;BME280;55437;55.046;38.838;2022-08-19T12:14:52;100722.25;;;25.05;40.14
68456;BME280;55437;55.046;38.838;2022-08-19T12:17:26;100735.16;;;24.97;40.38
68456;BME280;55437;55.046;38.838;2022-08-19T12:19:53;100725.38;;;24.99;40.43
68456;BME280;55437;55.046;38.838;2022-08-19T12:22:24;100734.06;;;25.00;40.34
68456;BME280;55437;55.046;38.838;2022-08-19T12:24:50;100727.50;;;24.94;40.33
68456;BME280;55437;55.046;38.838;2022-08-19T12:27:18;100729.50;;;24.91;40.58
68456;BME280;55437;55.046;38.838;2022-08-19T12:29:44;100749.94;;;24.87;40.41
68456;BME280;55437;55.046;38.838;2022-08-19T12:32:09;100735.81;;;24.88;40.25
68456;BME280;55437;55.046;38.838;2022-08-19T12:34:35;100743.25;;;24.83;40.14
68456;BME280;55437;55.046;38.838;2022-08-19T12:37:05;100738.69;;;24.74;40.22
68456;BME280;55437;55.046;38.838;2022-08-19T12:39:40;100750.59;;;24.67;39.92
68456;BME280;55437;55.046;38.838;2022-08-19T12:42:08;100735.78;;;24.55;40.05
68456;BME280;55437;55.046;38.838;2022-08-19T12:44:36;100742.09;;;24.52;40.20
68456;BME280;55437;55.046;38.838;2022-08-19T12:47:02;100730.06;;;24.50;39.95
68456;BME280;55437;55.046;38.838;2022-08-19T12:49:29;100748.44;;;24.50;40.04
68456;BME280;55437;55.046;38.838;2022-08-19T12:51:56;100750.56;;;24.45;39.59
68456;BME280;55437;55.046;38.838;2022-08-19T12:54:26;100734.31;;;24.39;39.61
68456;BME280;55437;55.046;38.838;2022-08-19T12:56:51;100749.09;;;24.40;39.51
68456;BME280;55437;55.046;38.838;2022-08-19T12:59:17;100739.84;;;24.48;39.75
68456;BME280;55437;55.046;38.838;2022-08-19T13:01:44;100740.44;;;24.51;39.43
68456;BME280;55437;55.046;38.838;2022-08-19T13:04:10;100743.88;;;24.52;39.52
68456;BME280;55437;55.046;38.838;2022-08-19T13:06:37;100724.81;;;24.50;39.53
68456;BME280;55437;55.046;38.838;2022-08-19T13:09:04;100735.78;;;24.55;39.68
68456;BME280;55437;55.046;38.838;2022-08-19T13:11:30;100735.66;;;24.56;39.60
68456;BME280;55437;55.046;38.838;2022-08-19T13:14:01;100738.41;;;24.55;39.58
68456;BME280;55437;55.046;38.838;2022-08-19T13:16:28;100733.88;;;24.57;39.80
68456;BME280;55437;55.046;38.838;2022-08-19T13:18:55;100739.03;;;24.58;39.58
68456;BME280;55437;55.046;38.838;2022-08-19T13:21:27;100725.16;;;24.56;39.70